Time;durP1;ratioP1;P1;durP2;ratioP2;P2;SDS_P1;SDS_P2;PMS_P1;PMS_P2;Temp;Humidity;BMP_temperature;BMP_pressure;BME280_temperature;BME280_humidity;BME280_pressure;Samples;Min_cycle;Max_cycle;Signal;HPM_P1;HPM_P2
2022/08/16 00:01:50;;;;;;;18.73;12.70;;;18.40;99.90;;;;;;5094967;28;20032;-59
2022/08/16 00:04:16;;;;;;;14.38;11.18;;;18.30;99.90;;;;;;5095244;28;20093;-59
2022/08/16 00:06:43;;;;;;;18.08;11.98;;;18.30;99.90;;;;;;5095112;28;20020;-59
2022/08/16 00:09:09;;;;;;;14.82;11.77;;;18.30;99.90;;;;;;5093812;28;20036;-59
2022/08/16 00:11:36;;;;;;;20.88;11.85;;;18.30;99.90;;;;;;5094233;28;20373;-59
2022/08/16 00:14:04;;;;;;;19.75;11.77;;;18.30;99.90;;;;;;5094925;28;20028;-59
2022/08/16 00:16:33;;;;;;;12.95;10.15;;;18.30;99.90;;;;;;5095102;28;20354;-59
2022/08/16 00:18:59;;;;;;;16.13;11.15;;;18.30;99.90;;;;;;5094998;28;20039;-59
2022/08/16 00:21:25;;;;;;;14.57;11.30;;;18.30;99.90;;;;;;5094549;28;20436;-59
2022/08/16 00:23:52;;;;;;;21.90;11.70;;;18.30;99.90;;;;;;5094447;28;20090;-59
2022/08/16 00:26:18;;;;;;;18.08;10.88;;;18.30;99.90;;;;;;5094971;28;20349;-59
2022/08/16 00:28:44;;;;;;;15.95;10.85;;;18.20;99.90;;;;;;5094884;28;20083;-59
2022/08/16 00:31:10;;;;;;;13.95;11.73;;;18.20;99.90;;;;;;5093805;28;20086;-59
2022/08/16 00:33:36;;;;;;;14.15;10.30;;;18.20;99.90;;;;;;5094723;28;20473;-59
2022/08/16 00:36:02;;;;;;;14.05;10.77;;;18.20;99.90;;;;;;5093278;28;20031;-59
2022/08/16 00:38:28;;;;;;;16.48;11.60;;;18.20;99.90;;;;;;5093534;28;20027;-59
2022/08/16 00:40:54;;;;;;;18.92;11.35;;;18.10;99.90;;;;;;5093434;28;20025;-59
2022/08/16 00:43:33;;;;;;;16.27;11.60;;;18.00;99.90;;;;;;5094543;28;20028;-59
2022/08/16 00:46:19;;;;;;;13.65;10.43;;;18.00;99.90;;;;;;5094706;28;20056;-59
2022/08/16 00:48:46;;;;;;;15.50;11.20;;;17.90;99.90;;;;;;5094642;28;20547;-59
2022/08/16 00:51:14;;;;;;;20.10;11.32;;;18.00;99.90;;;;;;5094563;28;20081;-59
2022/08/16 00:53:40;;;;;;;14.23;10.40;;;18.00;99.90;;;;;;5094761;28;20138;-59
2022/08/16 00:56:13;;;;;;;17.92;11.98;;;17.90;99.90;;;;;;5094472;28;20107;-59
2022/08/16 00:58:43;;;;;;;17.83;12.07;;;17.90;99.90;;;;;;5094304;28;20020;-59
2022/08/16 01:01:10;;;;;;;19.30;12.82;;;17.90;99.90;;;;;;5094571;28;20031;-59
2022/08/16 01:03:40;;;;;;;23.88;14.77;;;17.90;99.90;;;;;;5092919;28;20044;-59
2022/08/16 01:06:06;;;;;;;25.60;14.15;;;17.90;99.90;;;;;;5094309;28;20478;-58
2022/08/16 01:08:35;;;;;;;20.40;13.60;;;17.90;99.90;;;;;;5093207;28;20028;-59
2022/08/16 01:11:02;;;;;;;20.52;13.07;;;17.90;99.90;;;;;;5093566;28;20066;-59
2022/08/16 01:13:31;;;;;;;17.50;12.02;;;17.90;99.90;;;;;;5094388;28;20028;-59
2022/08/16 01:16:03;;;;;;;17.58;12.02;;;17.90;99.90;;;;;;5094617;28;20024;-59
2022/08/16 01:18:43;;;;;;;17.85;11.80;;;17.90;99.90;;;;;;5094197;28;20045;-59
2022/08/16 01:21:40;;;;;;;19.98;11.90;;;17.90;99.90;;;;;;5093148;28;20469;-58
2022/08/16 01:24:37;;;;;;;21.30;12.13;;;17.80;99.90;;;;;;5092882;28;20071;-59
2022/08/16 01:27:14;;;;;;;15.77;11.50;;;17.70;99.90;;;;;;5094461;28;20099;-59
2022/08/16 01:29:52;;;;;;;17.38;11.23;;;17.70;99.90;;;;;;5094309;28;20020;-59
2022/08/16 01:32:18;;;;;;;15.15;11.55;;;17.70;99.90;;;;;;5093918;28;20036;-59
2022/08/16 01:34:45;;;;;;;17.23;11.80;;;17.70;99.90;;;;;;5096051;28;20040;-59
2022/08/16 01:37:12;;;;;;;15.98;12.55;;;17.60;99.90;;;;;;5096730;28;20055;-59
2022/08/16 01:39:40;;;;;;;16.98;11.85;;;17.60;99.90;;;;;;5096689;28;20035;-59
2022/08/16 01:42:07;;;;;;;15.23;11.43;;;17.70;99.90;;;;;;5098006;28;20067;-58
2022/08/16 01:44:35;;;;;;;16.98;11.65;;;17.60;99.90;;;;;;5097939;28;20024;-59
2022/08/16 01:47:02;;;;;;;17.50;11.48;;;17.60;99.90;;;;;;5096251;28;20036;-59
2022/08/16 01:49:38;;;;;;;20.70;12.07;;;17.70;99.90;;;;;;5096528;28;20473;-58
2022/08/16 01:52:14;;;;;;;16.38;11.15;;;17.60;99.90;;;;;;5097766;28;20489;-59
2022/08/16 01:54:51;;;;;;;15.02;10.80;;;17.50;99.90;;;;;;5096194;28;20032;-59
2022/08/16 01:57:17;;;;;;;18.90;11.73;;;17.50;99.90;;;;;;5096349;28;20035;-59
2022/08/16 01:59:43;;;;;;;14.82;11.68;;;17.40;99.90;;;;;;5097531;28;20028;-58
2022/08/16 02:02:14;;;;;;;15.63;12.00;;;17.50;99.90;;;;;;5096248;28;20042;-59
2022/08/16 02:04:40;;;;;;;15.40;11.98;;;17.40;99.90;;;;;;5097534;28;20036;-59
2022/08/16 02:07:08;;;;;;;21.95;12.48;;;17.40;99.90;;;;;;5097455;28;20109;-58
2022/08/16 02:09:37;;;;;;;16.50;11.57;;;17.30;99.90;;;;;;5095236;28;20036;-58
2022/08/16 02:12:07;;;;;;;17.13;12.95;;;17.30;99.90;;;;;;5096151;28;20038;-59
2022/08/16 02:14:36;;;;;;;18.70;13.00;;;17.30;99.90;;;;;;5096004;28;20036;-58
2022/08/16 02:17:05;;;;;;;17.95;12.90;;;17.30;99.90;;;;;;5097221;28;20516;-59
2022/08/16 02:19:33;;;;;;;16.65;12.63;;;17.20;99.90;;;;;;5096077;28;20115;-59
2022/08/16 02:22:01;;;;;;;18.60;11.60;;;17.30;99.90;;;;;;5096930;28;20036;-59
2022/08/16 02:24:28;;;;;;;17.27;11.70;;;17.30;99.90;;;;;;5095849;28;20036;-58
2022/08/16 02:26:55;;;;;;;14.45;12.10;;;17.30;99.90;;;;;;5097050;28;20032;-59
2022/08/16 02:29:22;;;;;;;16.65;11.43;;;17.20;99.90;;;;;;5095582;28;20081;-58
2022/08/16 02:31:49;;;;;;;16.48;11.35;;;17.20;99.90;;;;;;5095844;28;20024;-58
2022/08/16 02:34:18;;;;;;;18.33;11.95;;;17.10;99.90;;;;;;5095695;28;20038;-59
2022/08/16 02:36:45;;;;;;;17.42;11.65;;;17.10;99.90;;;;;;5095427;28;20603;-58
2022/08/16 02:39:13;;;;;;;17.08;11.60;;;17.10;99.90;;;;;;5095625;28;20028;-58
2022/08/16 02:41:41;;;;;;;21.40;12.00;;;17.00;99.90;;;;;;5096828;28;20039;-58
2022/08/16 02:44:10;;;;;;;17.20;11.90;;;17.00;99.90;;;;;;5095456;28;20035;-58
2022/08/16 02:46:38;;;;;;;18.75;12.20;;;17.10;99.90;;;;;;5094667;28;20036;-58
2022/08/16 02:49:06;;;;;;;18.73;11.40;;;17.10;99.90;;;;;;5095354;28;20036;-58
2022/08/16 02:51:32;;;;;;;18.20;12.23;;;17.10;99.90;;;;;;5095338;28;20157;-58
2022/08/16 02:54:00;;;;;;;17.50;11.82;;;17.10;99.90;;;;;;5095362;28;20028;-58
2022/08/16 02:56:28;;;;;;;14.60;10.60;;;17.10;99.90;;;;;;5095225;28;20115;-58
2022/08/16 02:58:54;;;;;;;15.23;10.63;;;17.00;99.90;;;;;;5095017;28;20024;-58
2022/08/16 03:01:24;;;;;;;15.32;10.60;;;17.00;99.90;;;;;;5094797;28;20028;-58
2022/08/16 03:03:53;;;;;;;17.43;11.37;;;16.80;99.90;;;;;;5094917;28;20493;-58
2022/08/16 03:06:20;;;;;;;15.80;11.10;;;16.90;99.90;;;;;;5096028;28;20036;-58
2022/08/16 03:08:49;;;;;;;17.52;11.05;;;16.90;99.90;;;;;;5094913;28;20031;-58
2022/08/16 03:11:18;;;;;;;14.77;11.05;;;16.90;99.90;;;;;;5094109;28;20035;-58
2022/08/16 03:13:46;;;;;;;17.58;11.05;;;16.90;99.90;;;;;;5094808;28;20033;-58
2022/08/16 03:16:12;;;;;;;16.67;11.23;;;16.90;99.90;;;;;;5094902;28;20451;-58
2022/08/16 03:18:39;;;;;;;15.45;10.80;;;16.90;99.90;;;;;;5094700;28;20262;-58
2022/08/16 03:21:06;;;;;;;15.70;11.30;;;16.90;99.90;;;;;;5094700;28;20382;-58
2022/08/16 03:23:33;;;;;;;17.83;12.15;;;16.90;99.90;;;;;;5094467;28;20075;-58
2022/08/16 03:26:00;;;;;;;18.27;12.15;;;17.00;99.90;;;;;;5095863;28;20035;-58
2022/08/16 03:28:26;;;;;;;16.38;11.85;;;16.90;99.90;;;;;;5094680;28;20157;-58
2022/08/16 03:30:52;;;;;;;17.10;12.25;;;17.00;99.90;;;;;;5094604;28;20430;-58
2022/08/16 03:33:20;;;;;;;15.57;10.73;;;17.10;99.90;;;;;;5094346;28;20028;-58
2022/08/16 03:35:58;;;;;;;16.40;11.98;;;17.00;99.90;;;;;;5094480;28;20254;-58
2022/08/16 03:38:33;;;;;;;16.75;11.30;;;16.90;99.90;;;;;;5094357;28;20028;-58
2022/08/16 03:41:04;;;;;;;17.02;11.05;;;16.90;99.90;;;;;;5094213;28;20032;-58
2022/08/16 03:43:31;;;;;;;15.25;10.73;;;16.80;99.90;;;;;;5094464;28;20131;-58
2022/08/16 03:45:58;;;;;;;14.43;10.93;;;16.80;99.90;;;;;;5094276;28;20028;-58
2022/08/16 03:48:37;;;;;;;20.58;12.35;;;16.70;99.90;;;;;;5094087;28;20382;-58
2022/08/16 03:51:10;;;;;;;23.80;12.65;;;16.70;99.90;;;;;;5094210;28;20077;-58
2022/08/16 03:53:43;;;;;;;17.85;11.65;;;16.70;99.90;;;;;;5094231;28;20077;-58
2022/08/16 03:56:10;;;;;;;17.23;11.27;;;16.70;99.90;;;;;;5095339;28;20051;-58
2022/08/16 03:58:36;;;;;;;12.93;10.57;;;16.60;99.90;;;;;;5093973;28;20028;-58
2022/08/16 04:01:04;;;;;;;17.95;10.25;;;16.60;99.90;;;;;;5093892;28;20024;-58
2022/08/16 04:03:32;;;;;;;19.30;10.65;;;16.70;99.90;;;;;;5093964;28;20115;-58
2022/08/16 04:05:58;;;;;;;23.58;12.27;;;16.60;99.90;;;;;;5093716;28;20032;-58
2022/08/16 04:08:25;;;;;;;17.90;11.45;;;16.60;99.90;;;;;;5093707;28;20032;-58
2022/08/16 04:10:55;;;;;;;15.95;11.25;;;16.50;99.90;;;;;;5093073;28;20032;-58
2022/08/16 04:13:23;;;;;;;17.02;11.35;;;16.50;99.90;;;;;;5093777;28;20481;-58
2022/08/16 04:15:51;;;;;;;20.80;11.80;;;16.50;99.90;;;;;;5093663;28;20042;-58
2022/08/16 04:18:22;;;;;;;16.73;11.52;;;16.50;99.90;;;;;;5095074;28;20028;-58
2022/08/16 04:20:49;;;;;;;14.63;11.32;;;16.50;99.90;;;;;;5093581;28;20500;-58
2022/08/16 04:23:17;;;;;;;17.50;11.73;;;16.50;99.90;;;;;;5093377;28;20047;-58
2022/08/16 04:25:46;;;;;;;17.70;11.60;;;16.60;99.90;;;;;;5093692;28;20132;-58
2022/08/16 04:28:13;;;;;;;23.38;12.43;;;16.60;99.90;;;;;;5093808;28;20062;-58
2022/08/16 04:30:40;;;;;;;18.23;11.65;;;16.60;99.90;;;;;;5093379;28;20028;-58
2022/08/16 04:33:06;;;;;;;20.05;13.00;;;16.60;99.90;;;;;;5094966;28;20020;-58
2022/08/16 04:35:35;;;;;;;16.27;12.18;;;16.70;99.90;;;;;;5094748;28;20389;-58
2022/08/16 04:38:03;;;;;;;24.10;12.70;;;16.70;99.90;;;;;;5093285;28;20055;-58
2022/08/16 04:40:35;;;;;;;15.63;11.25;;;16.70;99.90;;;;;;5093328;28;20526;-58
2022/08/16 04:43:02;;;;;;;22.63;12.88;;;16.80;99.90;;;;;;5093370;28;20081;-58
2022/08/16 04:45:30;;;;;;;22.35;12.82;;;16.90;99.90;;;;;;5093113;28;20032;-59
2022/08/16 04:47:58;;;;;;;24.10;12.93;;;17.00;99.90;;;;;;5094825;28;20049;-58
2022/08/16 04:50:30;;;;;;;24.83;14.88;;;17.10;99.90;;;;;;5093240;28;20020;-58
2022/08/16 04:52:58;;;;;;;23.40;13.43;;;17.20;99.90;;;;;;5094464;28;20031;-58
2022/08/16 04:55:27;;;;;;;20.55;12.57;;;17.30;99.90;;;;;;5093492;28;20548;-58
2022/08/16 04:57:55;;;;;;;18.95;11.93;;;17.30;99.90;;;;;;5093150;28;20366;-58
2022/08/16 05:00:34;;;;;;;23.60;14.07;;;17.40;99.90;;;;;;5093061;28;20063;-58
2022/08/16 05:03:11;;;;;;;22.90;13.85;;;17.60;99.90;;;;;;5093226;28;20039;-58
2022/08/16 05:05:48;;;;;;;30.92;13.23;;;17.60;99.90;;;;;;5092936;28;20065;-58
2022/08/16 05:08:19;;;;;;;29.65;14.95;;;17.70;99.90;;;;;;5093863;28;20028;-58
2022/08/16 05:10:52;;;;;;;23.00;12.63;;;17.90;99.90;;;;;;5076274;28;20025;-58
2022/08/16 05:13:19;;;;;;;26.52;13.93;;;18.00;99.90;;;;;;5066473;28;20031;-58
2022/08/16 05:15:47;;;;;;;26.88;13.32;;;18.20;99.90;;;;;;5063224;28;20112;-58
2022/08/16 05:18:15;;;;;;;30.08;13.85;;;18.30;99.90;;;;;;5046711;28;20037;-58
2022/08/16 05:20:49;;;;;;;24.70;14.18;;;18.40;99.90;;;;;;5069430;28;20033;-58
2022/08/16 05:23:19;;;;;;;29.75;15.27;;;18.40;99.90;;;;;;5071281;28;20052;-58
2022/08/16 05:25:45;;;;;;;26.00;13.80;;;18.50;99.90;;;;;;5071503;28;20040;-58
2022/08/16 05:28:11;;;;;;;22.33;13.70;;;18.70;99.90;;;;;;5069545;28;20054;-58
2022/08/16 05:30:41;;;;;;;28.45;14.10;;;18.80;99.90;;;;;;5071532;28;20079;-58
2022/08/16 05:33:13;;;;;;;24.73;13.43;;;18.90;99.90;;;;;;5075015;28;20429;-58
2022/08/16 05:35:39;;;;;;;22.27;13.80;;;19.00;99.90;;;;;;5064711;28;20025;-58
2022/08/16 05:38:10;;;;;;;20.27;12.32;;;19.00;99.90;;;;;;5076448;28;20025;-58
2022/08/16 05:40:36;;;;;;;23.52;14.75;;;19.00;99.90;;;;;;5075964;28;20028;-58
2022/08/16 05:43:03;;;;;;;22.45;13.48;;;19.20;99.90;;;;;;5076208;28;20508;-58
2022/08/16 05:45:30;;;;;;;23.73;13.88;;;19.30;99.90;;;;;;5076196;28;20032;-58
2022/08/16 05:48:00;;;;;;;24.83;13.60;;;19.50;99.90;;;;;;5074015;28;20020;-58
2022/08/16 05:50:30;;;;;;;22.60;14.07;;;19.70;99.90;;;;;;5063112;28;20475;-58
2022/08/16 05:52:56;;;;;;;26.05;13.60;;;19.70;99.90;;;;;;5069223;28;20029;-58
2022/08/16 05:55:24;;;;;;;30.63;14.55;;;19.80;99.90;;;;;;5062211;28;20048;-58
2022/08/16 05:57:50;;;;;;;24.88;13.63;;;19.90;99.90;;;;;;5073564;28;20482;-59
2022/08/16 06:00:17;;;;;;;21.33;13.40;;;20.00;99.90;;;;;;5074641;28;20034;-58
2022/08/16 06:02:46;;;;;;;26.25;14.00;;;20.20;99.90;;;;;;5059162;28;20037;-58
2022/08/16 06:05:31;;;;;;;26.98;13.20;;;20.50;99.90;;;;;;5075292;28;20090;-58
2022/08/16 06:07:57;;;;;;;24.42;14.88;;;20.60;99.90;;;;;;5062808;28;20033;-59
2022/08/16 06:10:30;;;;;;;24.63;12.48;;;20.70;99.90;;;;;;5067907;28;20025;-58
2022/08/16 06:12:57;;;;;;;18.88;11.40;;;21.00;99.90;;;;;;5058239;28;20108;-59
2022/08/16 06:15:23;;;;;;;22.92;12.63;;;21.10;99.90;;;;;;5056768;28;20063;-59
2022/08/16 06:17:49;;;;;;;19.20;11.75;;;21.30;99.90;;;;;;5055346;28;20040;-59
2022/08/16 06:20:23;;;;;;;19.33;11.48;;;21.50;99.90;;;;;;5054416;28;20037;-58
2022/08/16 06:22:55;;;;;;;22.63;11.77;;;21.70;99.90;;;;;;5055130;28;20057;-58
2022/08/16 06:25:21;;;;;;;21.55;11.50;;;21.90;99.90;;;;;;5055173;28;20071;-58
2022/08/16 06:27:47;;;;;;;19.58;11.63;;;22.10;99.90;;;;;;5054486;28;20027;-59
2022/08/16 06:30:13;;;;;;;25.63;11.98;;;22.20;99.90;;;;;;5056369;28;20029;-59
2022/08/16 06:32:40;;;;;;;29.70;12.63;;;22.40;99.90;;;;;;5055187;28;20036;-59
2022/08/16 06:35:07;;;;;;;21.15;10.48;;;22.60;99.90;;;;;;5055088;28;20041;-59
2022/08/16 06:37:34;;;;;;;28.88;12.23;;;22.70;99.90;;;;;;5055185;28;20096;-59
2022/08/16 06:40:00;;;;;;;25.05;11.00;;;22.80;99.90;;;;;;5056303;28;20037;-59
2022/08/16 06:42:31;;;;;;;21.88;11.10;;;23.00;99.90;;;;;;5056304;28;20047;-58
2022/08/16 06:45:18;;;;;;;35.75;15.00;;;23.30;98.40;;;;;;5054572;28;20029;-59
2022/08/16 06:47:49;;;;;;;16.35;10.65;;;23.60;97.20;;;;;;5056213;28;20024;-58
2022/08/16 06:50:15;;;;;;;17.67;10.43;;;23.90;97.40;;;;;;5055048;28;20032;-59
2022/08/16 06:52:45;;;;;;;16.87;10.77;;;24.30;94.60;;;;;;5082270;28;20111;-59
2022/08/16 06:55:15;;;;;;;16.55;10.70;;;24.40;92.90;;;;;;5094058;28;20435;-59
2022/08/16 06:57:46;;;;;;;21.58;10.98;;;24.60;92.80;;;;;;5075160;28;20063;-59
2022/08/16 07:00:13;;;;;;;14.75;9.60;;;24.60;91.20;;;;;;5075417;28;20040;-59
2022/08/16 07:02:48;;;;;;;20.25;11.13;;;24.60;91.30;;;;;;5074968;28;20048;-59
2022/08/16 07:05:15;;;;;;;17.60;9.93;;;24.80;91.20;;;;;;5074318;28;20117;-59
2022/08/16 07:07:51;;;;;;;18.27;9.70;;;24.40;91.30;;;;;;5072682;28;20465;-59
2022/08/16 07:10:19;;;;;;;22.30;10.98;;;24.50;91.70;;;;;;5081719;28;20028;-59
2022/08/16 07:12:46;;;;;;;23.35;11.07;;;24.80;90.40;;;;;;5096021;28;20069;-59
2022/08/16 07:15:12;;;;;;;18.98;9.40;;;24.80;90.10;;;;;;5094853;28;20032;-59
2022/08/16 07:17:38;;;;;;;21.38;10.32;;;25.00;90.70;;;;;;5094648;28;20081;-59
2022/08/16 07:20:07;;;;;;;15.50;10.32;;;25.20;90.50;;;;;;5095196;28;20028;-59
2022/08/16 07:23:01;;;;;;;20.25;9.95;;;25.60;88.30;;;;;;5091982;28;20048;-59
2022/08/16 07:25:35;;;;;;;21.85;9.63;;;25.90;87.30;;;;;;5094181;28;20050;-59
2022/08/16 07:28:04;;;;;;;19.85;9.55;;;26.00;87.20;;;;;;5095661;28;20458;-59
2022/08/16 07:30:35;;;;;;;18.77;9.77;;;26.00;85.70;;;;;;5094567;28;20651;-59
2022/08/16 07:33:04;;;;;;;18.13;8.73;;;26.60;85.90;;;;;;5072305;28;20017;-59
2022/08/16 07:35:31;;;;;;;18.58;12.15;;;27.00;80.60;;;;;;5061691;28;20033;-59
2022/08/16 07:37:58;;;;;;;17.30;9.35;;;27.30;79.30;;;;;;5070531;28;20032;-59
2022/08/16 07:40:37;;;;;;;15.95;7.75;;;27.50;78.80;;;;;;5071404;28;20029;-59
2022/08/16 07:43:04;;;;;;;14.73;7.72;;;27.60;76.20;;;;;;5063926;28;20215;-59
2022/08/16 07:45:32;;;;;;;15.05;7.82;;;27.50;75.10;;;;;;5059033;28;20028;-59
2022/08/16 07:47:58;;;;;;;14.95;9.15;;;27.30;73.40;;;;;;5064382;28;20441;-59
2022/08/16 07:50:26;;;;;;;15.57;7.28;;;27.20;73.40;;;;;;5073411;28;20067;-59
2022/08/16 07:52:52;;;;;;;14.70;7.05;;;27.20;74.60;;;;;;5072743;28;20029;-59
2022/08/16 07:55:18;;;;;;;16.17;6.75;;;27.20;67.50;;;;;;5072766;28;20032;-59
2022/08/16 07:57:45;;;;;;;12.65;6.05;;;27.20;71.40;;;;;;5074053;28;20028;-59
2022/08/16 08:00:13;;;;;;;20.10;8.07;;;27.20;66.40;;;;;;5072979;28;20032;-59
2022/08/16 08:02:42;;;;;;;11.68;6.78;;;27.20;66.00;;;;;;5072887;28;20035;-59
2022/08/16 08:05:14;;;;;;;15.30;7.60;;;27.10;70.10;;;;;;5073346;28;20028;-59
2022/08/16 08:07:42;;;;;;;20.45;7.85;;;26.90;70.90;;;;;;5072521;28;20035;-59
2022/08/16 08:10:08;;;;;;;18.50;8.52;;;27.00;73.90;;;;;;5073802;28;20051;-59
2022/08/16 08:12:35;;;;;;;21.77;9.20;;;27.20;71.90;;;;;;5083572;28;20029;-59
2022/08/16 08:15:01;;;;;;;22.60;10.02;;;27.40;72.00;;;;;;5071830;28;20040;-59
2022/08/16 08:17:28;;;;;;;16.90;7.32;;;27.40;70.80;;;;;;5073316;28;20035;-59
2022/08/16 08:19:55;;;;;;;27.27;8.27;;;27.70;67.10;;;;;;5073268;28;20076;-59
2022/08/16 08:22:21;;;;;;;14.00;6.95;;;28.10;68.30;;;;;;5074481;28;20059;-59
2022/08/16 08:24:51;;;;;;;20.95;8.00;;;28.20;65.60;;;;;;5072908;28;20041;-59
2022/08/16 08:27:17;;;;;;;23.35;7.63;;;28.40;63.20;;;;;;5073101;28;20529;-59
2022/08/16 08:29:43;;;;;;;20.58;7.07;;;28.70;60.50;;;;;;5073371;28;20029;-59
2022/08/16 08:32:12;;;;;;;14.75;6.45;;;28.90;57.70;;;;;;5073005;28;20036;-59
2022/08/16 08:34:38;;;;;;;19.85;6.93;;;29.40;55.80;;;;;;5074716;28;20039;-59
2022/08/16 08:37:05;;;;;;;20.65;7.50;;;29.50;56.60;;;;;;5073068;28;20094;-59
2022/08/16 08:39:37;;;;;;;22.23;7.53;;;30.00;55.10;;;;;;5072757;28;20367;-59
2022/08/16 08:42:04;;;;;;;17.40;7.55;;;30.30;53.00;;;;;;5072193;28;20056;-59
2022/08/16 08:44:32;;;;;;;15.25;7.03;;;30.50;52.80;;;;;;5064334;28;20534;-59
2022/08/16 08:47:05;;;;;;;11.75;6.53;;;30.10;53.30;;;;;;5067148;28;20037;-60
2022/08/16 08:49:34;;;;;;;13.82;7.05;;;30.20;54.70;;;;;;5073007;28;20090;-59
2022/08/16 08:52:02;;;;;;;16.35;6.80;;;29.80;56.40;;;;;;5072855;28;20025;-60
2022/08/16 08:54:28;;;;;;;17.65;6.65;;;29.80;55.80;;;;;;5074187;28;20035;-60
2022/08/16 08:56:55;;;;;;;13.07;7.35;;;29.70;57.30;;;;;;5072282;28;20036;-60
2022/08/16 08:59:27;;;;;;;17.88;8.10;;;29.60;59.00;;;;;;5061922;28;20477;-59
2022/08/16 09:01:54;;;;;;;20.88;7.90;;;29.30;59.20;;;;;;5062333;28;20462;-60
2022/08/16 09:04:20;;;;;;;26.30;9.57;;;29.20;59.80;;;;;;5061538;28;20037;-60
2022/08/16 09:06:48;;;;;;;24.58;10.43;;;28.90;61.50;;;;;;5068771;28;20025;-60
2022/08/16 09:09:20;;;;;;;33.42;12.10;;;28.90;61.70;;;;;;5072528;28;20478;-60
2022/08/16 09:11:54;;;;;;;22.67;9.30;;;28.90;61.00;;;;;;5072823;28;20033;-60
2022/08/16 09:14:20;;;;;;;22.77;9.45;;;28.70;61.30;;;;;;5073912;28;20115;-60
2022/08/16 09:16:46;;;;;;;36.17;11.48;;;28.60;61.90;;;;;;5071988;28;20091;-60
2022/08/16 09:19:12;;;;;;;26.40;9.88;;;28.30;63.00;;;;;;5072249;28;20037;-60
2022/08/16 09:21:38;;;;;;;26.00;9.98;;;28.20;63.30;;;;;;5071483;28;20058;-60
2022/08/16 09:24:04;;;;;;;14.18;9.13;;;28.10;63.80;;;;;;5065562;28;20082;-60
2022/08/16 09:26:30;;;;;;;21.85;9.32;;;28.10;64.00;;;;;;5061061;28;20493;-60
2022/08/16 09:29:02;;;;;;;17.73;10.63;;;28.00;64.50;;;;;;5072408;28;20074;-60
2022/08/16 09:31:29;;;;;;;17.92;10.68;;;27.90;64.50;;;;;;5072884;28;20036;-60
2022/08/16 09:33:54;;;;;;;20.55;10.30;;;27.50;65.90;;;;;;5073964;28;20032;-60
2022/08/16 09:36:20;;;;;;;17.00;9.57;;;27.60;68.80;;;;;;5073809;28;20024;-60
2022/08/16 09:38:46;;;;;;;23.45;9.50;;;27.50;65.40;;;;;;5073992;28;20429;-59
2022/08/16 09:41:12;;;;;;;17.90;8.77;;;27.40;64.90;;;;;;5073850;28;20025;-60
2022/08/16 09:43:38;;;;;;;14.13;8.02;;;27.30;65.60;;;;;;5073570;28;20070;-59
2022/08/16 09:46:06;;;;;;;19.42;8.27;;;27.40;66.20;;;;;;5073408;28;20071;-59
2022/08/16 09:48:40;;;;;;;24.85;8.35;;;27.20;64.20;;;;;;5073717;28;20033;-59
2022/08/16 09:51:11;;;;;;;21.35;8.10;;;27.20;65.30;;;;;;5073685;28;20021;-60
2022/08/16 09:53:37;;;;;;;21.48;7.63;;;27.30;66.50;;;;;;5072257;28;20045;-60
2022/08/16 09:56:07;;;;;;;11.50;6.70;;;27.40;67.10;;;;;;5077189;28;20103;-59
2022/08/16 09:58:33;;;;;;;14.57;6.65;;;27.20;66.10;;;;;;5075875;28;20039;-60
2022/08/16 10:00:59;;;;;;;11.27;6.65;;;27.20;66.40;;;;;;5077131;28;20028;-60
2022/08/16 10:03:26;;;;;;;9.73;6.28;;;27.30;66.30;;;;;;5077020;28;20037;-60
2022/08/16 10:05:52;;;;;;;14.60;6.75;;;27.30;67.30;;;;;;5075644;28;20033;-60
2022/08/16 10:08:22;;;;;;;11.52;7.13;;;27.10;67.50;;;;;;5076886;28;20029;-60
2022/08/16 10:13:33;;;;;;;10.82;6.20;;;27.90;66.80;;;;;;5075082;28;20028;-59
2022/08/16 10:16:00;;;;;;;8.38;5.97;;;28.40;66.70;;;;;;5076565;28;20082;-59
2022/08/16 10:18:30;;;;;;;7.75;5.78;;;29.10;63.50;;;;;;5076777;28;20036;-60
2022/08/16 10:20:57;;;;;;;12.48;6.18;;;29.30;59.90;;;;;;5075597;28;20032;-59
2022/08/16 10:23:23;;;;;;;10.40;5.90;;;29.80;58.70;;;;;;5076724;28;20076;-60
2022/08/16 10:25:51;;;;;;;12.82;5.68;;;30.00;57.90;;;;;;5076465;28;20028;-60
2022/08/16 10:28:17;;;;;;;12.18;5.75;;;30.80;56.90;;;;;;5076648;28;20027;-59
2022/08/16 10:30:43;;;;;;;9.20;5.13;;;31.90;58.40;;;;;;5076871;28;20025;-60
2022/08/16 10:33:13;;;;;;;7.82;4.50;;;32.50;53.40;;;;;;5076706;28;20025;-60
2022/08/16 10:35:43;;;;;;;8.45;5.07;;;32.50;50.00;;;;;;5076606;28;20029;-60
2022/08/16 10:38:11;;;;;;;13.02;5.97;;;32.10;49.90;;;;;;5076513;28;20032;-60
2022/08/16 10:40:39;;;;;;;10.75;5.28;;;32.30;50.00;;;;;;5076362;28;20432;-60
2022/08/16 10:43:05;;;;;;;10.63;5.60;;;31.90;51.80;;;;;;5076305;28;20031;-60
2022/08/16 10:45:32;;;;;;;10.00;4.90;;;31.90;50.70;;;;;;5076257;28;20606;-60
2022/08/16 10:47:59;;;;;;;10.43;5.60;;;31.80;49.30;;;;;;5076736;28;20052;-60
2022/08/16 10:50:27;;;;;;;9.20;4.68;;;32.20;52.00;;;;;;5076257;28;20127;-60
2022/08/16 10:52:53;;;;;;;9.55;4.45;;;32.50;50.20;;;;;;5076216;28;20051;-60
2022/08/16 10:55:20;;;;;;;16.95;5.38;;;32.60;48.30;;;;;;5075299;28;20031;-60
2022/08/16 10:57:47;;;;;;;11.68;5.00;;;31.70;49.10;;;;;;5076337;28;20103;-60
2022/08/16 11:00:16;;;;;;;16.27;5.43;;;32.00;50.10;;;;;;5076409;28;20024;-60
2022/08/16 11:02:42;;;;;;;9.40;4.80;;;32.00;47.30;;;;;;5076175;28;20033;-60
2022/08/16 11:05:11;;;;;;;10.20;4.43;;;32.40;46.70;;;;;;5076096;28;20043;-60
2022/08/16 11:07:55;;;;;;;9.68;4.28;;;32.70;46.00;;;;;;5074373;28;20099;-60
2022/08/16 11:10:28;;;;;;;9.85;4.60;;;31.80;47.50;;;;;;5080902;28;20028;-60
2022/08/16 11:12:54;;;;;;;12.77;5.00;;;31.80;48.00;;;;;;5096240;28;20545;-60
2022/08/16 11:15:20;;;;;;;10.02;5.20;;;32.10;48.00;;;;;;5095859;28;20221;-60
2022/08/16 11:17:49;;;;;;;10.63;4.82;;;32.20;47.00;;;;;;5096023;28;20027;-60
2022/08/16 11:20:16;;;;;;;14.85;5.80;;;32.10;46.90;;;;;;5086283;28;20381;-61
2022/08/16 11:22:49;;;;;;;10.52;4.65;;;31.70;47.20;;;;;;5075972;28;20047;-60
2022/08/16 11:25:18;;;;;;;9.32;4.78;;;31.90;47.60;;;;;;5073808;28;20508;-60
2022/08/16 11:27:45;;;;;;;8.43;4.47;;;32.10;46.90;;;;;;5071817;28;20116;-60
2022/08/16 11:30:15;;;;;;;12.55;4.45;;;32.40;48.30;;;;;;5072908;28;20442;-60
2022/08/16 11:32:43;;;;;;;10.52;4.55;;;32.20;47.80;;;;;;5067498;28;20493;-60
2022/08/16 11:35:18;;;;;;;8.68;4.13;;;31.90;46.30;;;;;;5071266;28;20032;-60
2022/08/16 11:37:55;;;;;;;8.27;4.65;;;32.30;46.00;;;;;;5074061;28;20062;-60
2022/08/16 11:40:23;;;;;;;6.72;4.25;;;32.30;46.00;;;;;;5073410;28;20347;-60
2022/08/16 11:42:49;;;;;;;9.80;4.63;;;32.60;46.30;;;;;;5073612;28;20096;-60
2022/08/16 11:45:14;;;;;;;6.68;4.00;;;32.70;46.50;;;;;;5074846;28;20063;-60
2022/08/16 11:47:41;;;;;;;11.70;4.63;;;32.70;45.30;;;;;;5075167;28;20028;-60
2022/08/16 11:50:08;;;;;;;7.05;3.58;;;32.80;46.90;;;;;;5069141;28;20029;-60
2022/08/16 11:52:35;;;;;;;7.40;3.97;;;32.80;45.50;;;;;;5056399;28;20025;-60
2022/08/16 11:55:03;;;;;;;8.25;3.65;;;32.70;47.50;;;;;;5070097;28;20036;-60
2022/08/16 11:57:29;;;;;;;10.85;4.00;;;32.80;44.40;;;;;;5074381;28;20086;-60
2022/08/16 11:59:56;;;;;;;10.00;3.92;;;32.40;44.10;;;;;;5072130;28;20041;-60
2022/08/16 12:02:22;;;;;;;6.55;3.92;;;32.60;46.10;;;;;;5069633;28;20498;-60
2022/08/16 12:04:48;;;;;;;7.13;3.65;;;32.70;47.80;;;;;;5072236;28;20089;-60
2022/08/16 12:07:14;;;;;;;6.20;3.45;;;32.80;47.50;;;;;;5074311;28;20297;-60
2022/08/16 12:09:40;;;;;;;9.05;4.40;;;32.60;43.90;;;;;;5076533;28;20043;-60
2022/08/16 12:12:06;;;;;;;5.78;3.95;;;32.70;47.60;;;;;;5079358;28;20078;-60
2022/08/16 12:14:33;;;;;;;6.07;3.30;;;32.70;46.60;;;;;;5074394;28;20408;-60
2022/08/16 12:17:01;;;;;;;5.60;3.55;;;32.20;45.70;;;;;;5072673;28;20040;-60
2022/08/16 12:19:28;;;;;;;6.35;3.88;;;32.10;47.20;;;;;;5069400;28;20086;-60
2022/08/16 12:21:54;;;;;;;10.05;4.18;;;32.30;46.60;;;;;;5069773;28;20072;-60
2022/08/16 12:24:21;;;;;;;11.07;3.88;;;32.20;48.30;;;;;;5074497;28;20072;-60
2022/08/16 12:26:47;;;;;;;12.98;4.70;;;32.50;46.30;;;;;;5060917;28;20021;-60
2022/08/16 12:29:14;;;;;;;11.55;4.57;;;32.70;46.00;;;;;;5061622;28;20029;-60
2022/08/16 12:31:42;;;;;;;11.80;4.03;;;32.90;45.90;;;;;;5060024;28;20031;-60
2022/08/16 12:34:10;;;;;;;9.32;3.78;;;32.60;43.40;;;;;;5073442;28;20039;-60
2022/08/16 12:36:38;;;;;;;6.35;3.85;;;32.40;43.70;;;;;;5072940;28;20056;-60
2022/08/16 12:39:05;;;;;;;6.47;3.10;;;32.80;43.40;;;;;;5072949;28;20021;-60
2022/08/16 12:41:36;;;;;;;13.55;3.63;;;33.50;43.60;;;;;;5069020;28;20421;-60
2022/08/16 12:44:05;;;;;;;6.38;3.45;;;33.70;42.60;;;;;;5062579;28;20108;-60